createdAt,value
2022-08-09T00:01:14.377Z,2.38
2022-08-09T00:06:23.127Z,2.30
2022-08-09T00:11:55.001Z,1.90
2022-08-09T00:24:49.269Z,2.58
2022-08-09T00:30:24.335Z,2.38
2022-08-09T00:35:16.844Z,2.20
2022-08-09T00:40:22.515Z,2.50
2022-08-09T00:45:35.025Z,2.38
2022-08-09T00:50:39.129Z,2.20
2022-08-09T00:56:04.749Z,2.20
2022-08-09T01:01:16.230Z,2.17
2022-08-09T01:06:35.195Z,2.05
2022-08-09T01:12:09.670Z,2.00
2022-08-09T01:17:23.473Z,2.00
2022-08-09T01:23:03.617Z,1.95
2022-08-09T01:28:11.702Z,2.03
2022-08-09T01:33:17.812Z,2.05
2022-08-09T01:38:25.642Z,2.33
2022-08-09T01:43:50.549Z,2.33
2022-08-09T01:49:09.450Z,1.92
2022-08-09T01:54:16.286Z,2.20
2022-08-09T01:59:23.420Z,2.05
2022-08-09T02:04:29.616Z,2.30
2022-08-09T02:09:42.154Z,2.47
2022-08-09T02:14:51.643Z,2.10
2022-08-09T02:19:55.836Z,1.85
2022-08-09T02:25:02.599Z,2.08
2022-08-09T02:30:09.809Z,1.80
2022-08-09T02:41:10.617Z,2.35
2022-08-09T02:46:18.269Z,2.00
2022-08-09T02:51:24.241Z,2.30
2022-08-09T02:56:34.147Z,2.40
2022-08-09T03:02:05.723Z,2.00
2022-08-09T03:07:13.935Z,2.13
2022-08-09T03:12:20.741Z,2.35
2022-08-09T03:17:27.605Z,2.28
2022-08-09T03:22:41.811Z,2.20
2022-08-09T03:27:51.428Z,2.50
2022-08-09T03:32:57.311Z,2.10
2022-08-09T03:38:02.554Z,2.40
2022-08-09T03:43:08.064Z,2.13
2022-08-09T03:48:19.114Z,2.10
2022-08-09T03:53:36.947Z,2.30
2022-08-09T03:58:42.252Z,2.50
2022-08-09T04:04:00.436Z,2.50
2022-08-09T04:09:13.628Z,2.53
2022-08-09T04:14:52.845Z,2.20
2022-08-09T04:19:56.401Z,2.83
2022-08-09T04:25:01.350Z,2.47
2022-08-09T04:30:10.260Z,2.97
2022-08-09T04:35:16.975Z,2.50
2022-08-09T04:40:35.956Z,2.65
2022-08-09T04:45:53.008Z,2.60
2022-08-09T04:51:03.977Z,2.60
2022-08-09T04:56:08.825Z,2.60
2022-08-09T05:01:16.427Z,4.10
2022-08-09T05:06:27.829Z,2.92
2022-08-09T05:11:35.969Z,2.30
2022-08-09T05:16:43.443Z,2.63
2022-08-09T05:22:05.260Z,2.53
2022-08-09T05:27:29.150Z,3.08
2022-08-09T05:32:36.417Z,2.90
2022-08-09T05:37:48.000Z,3.30
2022-08-09T05:42:54.111Z,2.72
2022-08-09T05:48:01.286Z,3.30
2022-08-09T05:53:05.640Z,3.15
2022-08-09T05:58:18.381Z,3.50
2022-08-09T06:03:23.704Z,3.28
2022-08-09T06:08:27.520Z,3.60
2022-08-09T06:13:33.927Z,3.40
2022-08-09T06:18:44.248Z,4.60
2022-08-09T06:23:58.688Z,5.30
2022-08-09T06:29:08.300Z,5.05
2022-08-09T06:34:26.153Z,3.58
2022-08-09T06:39:49.321Z,6.03
2022-08-09T06:45:20.440Z,3.28
2022-08-09T06:50:46.275Z,3.20
2022-08-09T06:55:50.363Z,3.80
2022-08-09T07:00:58.725Z,3.42
2022-08-09T07:06:06.045Z,4.28
2022-08-09T07:11:12.362Z,4.63
2022-08-09T07:16:42.706Z,3.40
2022-08-09T07:21:55.750Z,3.22
2022-08-09T07:27:02.883Z,4.50
2022-08-09T07:32:07.585Z,5.43
2022-08-09T07:37:15.845Z,5.47
2022-08-09T07:42:19.860Z,3.03
2022-08-09T07:47:49.684Z,6.28
2022-08-09T07:53:02.801Z,3.97
2022-08-09T07:58:13.131Z,5.90
2022-08-09T08:03:17.964Z,3.42
2022-08-09T08:09:01.126Z,3.55
2022-08-09T08:13:56.813Z,3.58
2022-08-09T08:19:02.800Z,3.25
2022-08-09T08:24:12.084Z,3.03
2022-08-09T08:29:28.057Z,3.50
2022-08-09T08:34:33.745Z,3.22
2022-08-09T08:39:44.286Z,3.10
2022-08-09T08:44:53.082Z,3.00
2022-08-09T08:49:59.438Z,5.00
2022-08-09T08:55:09.108Z,3.47
2022-08-09T09:00:20.645Z,3.42
2022-08-09T09:05:57.772Z,3.92
2022-08-09T09:10:58.657Z,3.45
2022-08-09T09:16:02.991Z,3.75
2022-08-09T09:21:08.305Z,2.40
2022-08-09T09:26:15.461Z,2.38
2022-08-09T09:32:03.524Z,2.20
2022-08-09T09:36:53.705Z,3.30
2022-08-09T09:42:01.327Z,8.55
2022-08-09T09:47:08.014Z,4.38
2022-08-09T09:52:33.378Z,2.75
2022-08-09T09:58:02.799Z,2.55
2022-08-09T10:03:11.697Z,2.50
2022-08-09T10:13:45.013Z,2.90
2022-08-09T10:18:54.338Z,2.75
2022-08-09T10:24:04.031Z,3.95
2022-08-09T10:29:21.366Z,6.22
2022-08-09T10:34:38.173Z,3.92
2022-08-09T10:39:49.479Z,2.92
2022-08-09T10:45:01.023Z,2.55
2022-08-09T10:50:15.298Z,2.60
2022-08-09T10:55:25.245Z,2.33
2022-08-09T11:00:56.914Z,2.20
2022-08-09T11:06:22.940Z,1.92
2022-08-09T11:11:51.659Z,2.20
2022-08-09T11:16:58.217Z,2.22
2022-08-09T11:22:10.636Z,2.28
2022-08-09T11:28:05.486Z,2.20
2022-08-09T11:33:06.513Z,3.10
2022-08-09T11:38:22.377Z,2.80
2022-08-09T11:43:41.392Z,2.40
2022-08-09T11:48:52.251Z,2.70
2022-08-09T11:54:28.803Z,5.80
2022-08-09T11:59:37.928Z,4.03
2022-08-09T12:04:45.447Z,2.63
2022-08-09T12:09:54.014Z,2.55
2022-08-09T12:15:48.390Z,2.60
2022-08-09T12:20:46.486Z,2.05
2022-08-09T12:25:52.223Z,2.53
2022-08-09T12:30:57.784Z,2.90
2022-08-09T12:36:15.472Z,1.92
2022-08-09T12:41:39.078Z,2.17
2022-08-09T12:46:49.019Z,2.40
2022-08-09T12:52:02.567Z,2.40
2022-08-09T12:57:07.660Z,3.03
2022-08-09T13:02:15.176Z,2.40
2022-08-09T13:07:28.726Z,2.95
2022-08-09T13:12:59.861Z,2.80
2022-08-09T13:18:17.616Z,2.80
2022-08-09T13:24:42.590Z,2.28
2022-08-09T13:30:50.065Z,2.55
2022-08-09T13:36:24.699Z,2.90
2022-08-09T13:41:59.096Z,2.67
2022-08-09T13:47:26.445Z,2.97
2022-08-09T13:52:11.163Z,2.30
2022-08-09T13:57:35.681Z,2.47
2022-08-09T14:03:03.636Z,2.60
2022-08-09T14:08:08.166Z,2.20
2022-08-09T14:13:27.822Z,2.00
2022-08-09T14:18:45.194Z,2.25
2022-08-09T14:23:56.854Z,2.20
2022-08-09T14:29:07.793Z,2.40
2022-08-09T14:34:32.127Z,6.82
2022-08-09T14:39:45.851Z,2.33
2022-08-09T14:45:00.150Z,2.90
2022-08-09T14:50:05.916Z,4.18
2022-08-09T14:55:10.765Z,8.50
2022-08-09T15:00:16.282Z,2.63
2022-08-09T15:05:20.158Z,3.38
2022-08-09T15:10:25.037Z,2.73
2022-08-09T15:15:34.484Z,2.40
2022-08-09T15:21:57.973Z,2.40
2022-08-09T15:26:09.127Z,2.30
2022-08-09T15:31:28.563Z,3.75
2022-08-09T15:36:48.031Z,2.28
2022-08-09T15:41:52.204Z,2.63
2022-08-09T15:46:59.495Z,2.53
2022-08-09T15:52:06.086Z,2.40
2022-08-09T15:57:10.033Z,2.05
2022-08-09T16:02:15.408Z,1.80
2022-08-09T16:07:19.245Z,2.35
2022-08-09T16:12:23.366Z,2.22
2022-08-09T16:17:31.808Z,2.17
2022-08-09T16:22:42.444Z,2.30
2022-08-09T16:27:47.944Z,4.88
2022-08-09T16:33:15.739Z,2.30
2022-08-09T16:38:20.128Z,2.10
2022-08-09T16:43:26.645Z,2.88
2022-08-09T16:48:38.780Z,2.90
2022-08-09T16:54:24.877Z,2.47
2022-08-09T16:59:13.342Z,2.60
2022-08-09T17:04:25.655Z,2.42
2022-08-09T17:09:44.507Z,2.47
2022-08-09T17:14:57.642Z,2.50
2022-08-09T17:20:28.672Z,3.28
2022-08-09T17:25:30.524Z,3.20
2022-08-09T17:30:37.954Z,2.63
2022-08-09T17:35:44.295Z,2.85
2022-08-09T17:46:04.479Z,3.20
2022-08-09T17:51:19.486Z,2.67
2022-08-09T17:56:26.629Z,3.83
2022-08-09T18:01:40.840Z,4.60
2022-08-09T18:06:58.122Z,2.70
2022-08-09T18:12:14.673Z,3.03
2022-08-09T18:17:27.288Z,2.60
2022-08-09T18:22:51.272Z,2.70
2022-08-09T18:28:03.257Z,4.38
2022-08-09T18:33:12.761Z,4.95
2022-08-09T18:38:19.072Z,6.05
2022-08-09T18:43:23.888Z,5.97
2022-08-09T18:48:30.347Z,4.85
2022-08-09T18:53:59.596Z,6.00
2022-08-09T18:59:03.778Z,6.47
2022-08-09T19:04:09.046Z,7.40
2022-08-09T19:09:20.545Z,7.90
2022-08-09T19:14:39.098Z,8.02
2022-08-09T19:19:48.048Z,9.55
2022-08-09T19:25:11.632Z,9.13
2022-08-09T19:30:22.892Z,9.70
2022-08-09T19:35:57.668Z,9.02
2022-08-09T19:41:00.421Z,8.80
2022-08-09T19:46:04.927Z,8.50
2022-08-09T19:51:08.583Z,9.85
2022-08-09T19:56:15.404Z,8.80
2022-08-09T20:01:19.528Z,8.90
2022-08-09T20:06:29.810Z,8.13
2022-08-09T20:11:45.110Z,8.18
2022-08-09T20:16:56.924Z,9.40
2022-08-09T20:22:00.862Z,9.15
2022-08-09T20:27:08.545Z,8.73
2022-08-09T20:32:33.244Z,14.90
2022-08-09T20:38:22.081Z,7.75
2022-08-09T20:43:18.048Z,7.65
2022-08-09T20:48:29.089Z,6.22
2022-08-09T20:53:37.679Z,7.13
2022-08-09T20:58:44.164Z,9.43
2022-08-09T21:05:48.581Z,10.35
2022-08-09T21:09:14.084Z,8.60
2022-08-09T21:14:19.419Z,7.63
2022-08-09T21:20:17.722Z,8.27
2022-08-09T21:25:04.431Z,6.88
2022-08-09T21:30:11.035Z,6.65
2022-08-09T21:35:16.093Z,4.90
2022-08-09T21:40:29.995Z,5.78
2022-08-09T21:45:38.780Z,5.90
2022-08-09T21:50:43.408Z,5.57
2022-08-09T21:55:53.661Z,5.50
2022-08-09T22:00:58.679Z,5.82
2022-08-09T22:06:13.613Z,6.17
2022-08-09T22:12:09.548Z,6.53
2022-08-09T22:16:42.347Z,5.55
2022-08-09T22:21:51.054Z,5.90
2022-08-09T22:26:55.587Z,5.97
2022-08-09T22:32:00.827Z,5.95
2022-08-09T22:37:04.985Z,6.38
2022-08-09T22:42:22.172Z,5.70
2022-08-09T22:48:10.961Z,6.10
2022-08-09T22:52:57.647Z,5.53
2022-08-09T22:58:02.093Z,5.40
2022-08-09T23:03:12.559Z,5.03
2022-08-09T23:08:34.269Z,5.68
2022-08-09T23:13:38.237Z,5.05
2022-08-09T23:18:44.650Z,5.53
2022-08-09T23:24:04.960Z,5.30
2022-08-09T23:29:13.816Z,5.78
2022-08-09T23:34:19.257Z,5.10
2022-08-09T23:39:23.053Z,4.57
2022-08-09T23:44:26.899Z,5.63
2022-08-09T23:49:32.050Z,4.70
2022-08-09T23:54:35.748Z,6.23
2022-08-09T23:59:56.822Z,5.25
